Latest Coastal Weather Observations for Broome

IDW60701

Issued at 6:43 pm WST Friday 18 August 2017 (issued every 10 minutes, with the page automatically refreshed every 10 minutes)

About coastal observations | Map of coastal stations | Coastal observations for WA | Marine services | Other Formats
Station Details ID: 003003 Name: BROOME AIRPORT Lat: -17.95 Lon: 122.24 Height: 7.42 m
Data from the previous 72 hours. | See also: Recent months at Broome
Date/Time
WST
Temp
°C
Wind Pressure Rain since
9am
mm
Weather Cloud Vis
km
Sea
Height
m
Swell
Dir  Spd
kts
Gust
kts
hPa Trend Height
m
Period
s
Dir
18/06:30pm 25.4 NW 4 7 1012.3 - 0.0 - - 10 - - - -
18/06:00pm 26.2 WNW 7 9 1011.7 - 0.0 - - 10 - - - -
18/05:30pm 27.7 W 9 12 1011.3 - 0.0 - - 10 - - - -
18/05:00pm 30.5 W 9 12 1011.1 - 0.0 - - 10 - - - -
18/04:30pm 31.9 W 8 11 1010.7 - 0.0 - - 10 - - - -
18/04:00pm 32.2 W 9 11 1010.5 - 0.0 - - 10 - - - -
18/03:30pm 32.3 W 9 11 1010.3 - 0.0 - - 10 - - - -
18/03:00pm 33.9 SW 7 10 1010.1 - 0.0 - - 10 - - - -
18/02:30pm 35.4 S 8 11 1010.3 - 0.0 - - 10 - - - -
18/02:00pm 35.3 S 7 11 1010.5 - 0.0 - - 10 - - - -
18/01:30pm 35.0 SSE 8 13 1010.8 - 0.0 - - 10 - - - -
18/01:00pm 35.5 SE 9 13 1011.2 - 0.0 - - 10 - - - -
18/12:30pm 34.5 SE 11 14 1011.7 - 0.0 - - 10 - - - -
18/12:00pm 35.1 ESE 10 15 1012.1 - 0.0 - - 10 - - - -
18/11:30am 34.3 ESE 10 13 1012.7 - 0.0 - - 10 - - - -
18/11:00am 32.8 ESE 11 16 1013.1 - 0.0 - - 10 - - - -
18/10:30am 32.6 ESE 13 18 1013.7 - 0.0 - - 10 - - - -
18/10:00am 30.5 SE 9 14 1014.2 - 0.0 - - 10 - - - -
18/09:30am 28.8 E 11 13 1014.5 - 0.0 - - 10 - - - -
18/09:00am 27.8 E 10 14 1014.5 - 0.0 - - 10 - - - -
18/08:30am 25.3 ESE 6 8 1014.4 - 0.0 - - 10 - - - -
18/08:00am 23.4 E 5 7 1014.2 - 0.0 - - 10 - - - -
18/07:30am 22.1 ESE 5 7 1014.1 - 0.0 - - 10 - - - -
18/07:00am 20.8 ESE 5 6 1013.8 - 0.0 - - 10 - - - -
18/06:30am 19.5 ESE 6 6 1013.6 - 0.0 - - 10 - - - -
18/06:00am 19.0 ESE 5 7 1013.3 - 0.0 - - 10 - - - -
18/05:30am 19.7 ESE 6 8 1013.1 - 0.0 - - 10 - - - -
18/05:00am 21.0 SE 6 8 1012.7 - 0.0 - - 10 - - - -
18/04:30am 20.6 SE 5 6 1012.5 - 0.0 - - 10 - - - -
18/04:00am 21.1 ESE 6 9 1012.2 - 0.0 - - 10 - - - -
18/03:30am 22.1 SE 6 8 1012.0 - 0.0 - - 10 - - - -
18/03:00am 22.1 SE 5 8 1011.6 - 0.0 - - 10 - - - -
18/02:30am 22.9 SSE 5 7 1011.6 - 0.0 - - 10 - - - -
18/02:00am 23.5 SSE 6 8 1011.5 - 0.0 - - 10 - - - -
18/01:30am 23.9 S 6 7 1011.6 - 0.0 - - 10 - - - -
18/01:18am 23.6 S 5 7 1011.6 - 0.0 - - 10 - - - -
18/01:00am 18.6 WSW 1 5 1011.7 - 0.0 - - 10 - - - -
18/12:30am 17.3 CALM 0 0 1011.7 - 0.0 - - 10 - - - -
18/12:00am 18.0 CALM 0 0 1011.7 - 0.0 - - 10 - - - -
 
Date/Time
WST
Temp
°C
Wind Pressure Rain since
9am
mm
Weather Cloud Vis
km
Sea
Height
m
Swell
Dir  Spd
kts
Gust
kts
hPa Trend Height
m
Period
s
Dir
17/11:30pm 18.1 CALM 0 0 1012.1 - 0.0 - - 10 - - - -
17/11:00pm 19.0 CALM 0 0 1012.1 - 0.0 - - 10 - - - -
17/10:30pm 19.9 W 1 4 1012.3 - 0.0 - - 10 - - - -
17/10:00pm 23.5 W 5 8 1012.2 - 0.0 - - 10 - - - -
17/09:30pm 23.5 W 4 5 1012.2 - 0.0 - - 10 - - - -
17/09:00pm 24.1 WSW 5 7 1012.0 - 0.0 - - 10 - - - -
17/08:30pm 23.9 W 3 5 1012.0 - 0.0 - - 10 - - - -
17/08:00pm 24.8 WSW 6 8 1011.8 - 0.0 - - 10 - - - -
17/07:30pm 24.5 WSW 5 7 1011.4 - 0.0 - - 10 - - - -
17/07:00pm 25.0 W 3 5 1011.1 - 0.0 - - 10 - - - -
17/06:30pm 26.0 WSW 9 12 1010.5 - 0.0 - - 10 - - - -
17/06:00pm 26.1 WSW 9 12 1010.0 - 0.0 - - 10 - - - -
17/05:30pm 27.0 WSW 9 12 1009.9 - 0.0 - - 10 - - - -
17/05:00pm 27.9 WSW 10 13 1009.7 - 0.0 - - 10 - - - -
17/04:30pm 28.9 W 11 14 1009.7 - 0.0 - - 10 - - - -
17/04:00pm 29.7 W 11 15 1009.6 - 0.0 - - 10 - - - -
17/03:30pm 32.4 WSW 10 13 1009.5 - 0.0 - - 10 - - - -
17/03:00pm 33.4 WSW 11 13 1009.4 - 0.0 - - 10 - - - -
17/02:30pm 33.6 SSW 9 12 1009.5 - 0.0 - - 10 - - - -
17/02:00pm 33.1 S 9 12 1009.7 - 0.0 - - 10 - - - -
17/01:30pm 33.2 SSW 9 11 1010.0 - 0.0 - - 10 - - - -
17/01:00pm 33.0 S 8 11 1010.3 - 0.0 - - 10 - - - -
17/12:30pm 32.5 S 8 11 1010.8 - 0.0 - - 10 - - - -
17/12:00pm 32.4 SSE 8 11 1011.2 - 0.0 - - 10 - - - -
17/11:30am 31.4 SSE 9 13 1011.6 - 0.0 - - 10 - - - -
17/11:00am 30.6 SSE 8 13 1012.1 - 0.0 - - 10 - - - -
17/10:30am 30.0 SE 9 11 1012.6 - 0.0 - - 10 - - - -
17/10:00am 29.0 ESE 8 12 1012.8 - 0.0 - - 10 - - - -
17/09:30am 27.0 ESE 9 12 1013.2 - 0.0 - - 10 - - - -
17/09:00am 25.8 ESE 9 12 1013.3 - 0.0 - - 10 - - - -
17/08:30am 24.5 ESE 7 11 1013.4 - 0.0 - - 10 - - - -
17/08:00am 23.1 E 5 7 1013.3 - 0.0 - - 10 - - - -
17/07:30am 23.0 SE 8 11 1013.1 - 0.0 - - 10 - - - -
17/07:00am 21.4 ESE 5 6 1012.9 - 0.0 - - 10 - - - -
17/06:30am 17.9 SE 3 5 1012.4 - 0.0 - - 10 - - - -
17/06:00am 21.9 SSE 6 8 1012.3 - 0.0 - - 10 - - - -
17/05:30am 21.1 S 5 7 1012.1 - 0.0 - - 10 - - - -
17/05:00am 20.9 S 4 6 1011.7 - 0.0 - - 10 - - - -
17/04:30am 20.1 SSW 6 7 1011.6 - 0.0 - - 10 - - - -
17/04:00am 18.8 CALM 0 0 1011.7 - 0.0 - - 10 - - - -
17/03:30am 16.6 NW 1 4 1011.6 - 0.0 - - 10 - - - -
17/03:00am 17.5 NW 1 4 1011.5 - 0.0 - - 10 - - - -
17/02:30am 17.2 CALM 0 0 1011.7 - 0.0 - - 10 - - - -
17/02:00am 16.8 CALM 0 0 1011.8 - 0.0 - - 10 - - - -
17/01:30am 17.6 N 3 4 1011.8 - 0.0 - - 10 - - - -
17/01:00am 17.1 NNE 3 5 1011.8 - 0.0 - - 10 - - - -
17/12:30am 17.9 CALM 0 0 1011.7 - 0.0 - - 10 - - - -
17/12:00am 18.1 CALM 0 0 1011.8 - 0.0 - - 10 - - - -
 
Date/Time
WST
Temp
°C
Wind Pressure Rain since
9am
mm
Weather Cloud Vis
km
Sea
Height
m
Swell
Dir  Spd
kts
Gust
kts
hPa Trend Height
m
Period
s
Dir
16/11:30pm 19.4 N 3 4 1011.9 - 0.0 - - 10 - - - -
16/11:00pm 20.0 SSE 3 4 1012.0 - 0.0 - - 10 - - - -
16/10:30pm 19.3 N 3 5 1012.1 - 0.0 - - 10 - - - -
16/10:00pm 20.7 NNW 3 3 1012.1 - 0.0 - - 10 - - - -
16/09:30pm 23.0 WNW 5 7 1012.1 - 0.0 - - 10 - - - -
16/09:00pm 23.1 WNW 5 6 1011.9 - 0.0 - - 10 - - - -
16/08:30pm 23.4 WNW 7 10 1011.8 - 0.0 - - 10 - - - -
16/08:00pm 23.4 WNW 9 11 1011.6 - 0.0 - - 10 - - - -
16/07:30pm 23.6 W 8 10 1011.2 - 0.0 - - 10 - - - -
16/07:00pm 23.8 W 7 8 1011.0 - 0.0 - - 10 - - - -
16/06:30pm 23.7 W 6 9 1010.7 - 0.0 - - 10 - - - -
16/06:00pm 24.0 WNW 8 12 1010.2 - 0.0 - - 10 - - - -
16/05:30pm 24.6 W 9 12 1010.0 - 0.0 - - 10 - - - -
16/05:00pm 25.7 WNW 11 15 1010.1 - 0.0 - - 10 - - - -
16/04:30pm 26.7 NW 8 11 1010.0 - 0.0 - - 10 - - - -
16/04:00pm 27.6 NW 10 14 1009.9 - 0.0 - - 10 - - - -
16/03:30pm 27.7 NW 10 13 1009.7 - 0.0 - - 10 - - - -
16/03:00pm 28.3 W 9 13 1009.6 - 0.0 - - 10 - - - -
16/02:30pm 28.2 W 10 12 1009.7 - 0.0 - - 10 - - - -
16/02:00pm 28.8 W 9 11 1009.8 - 0.0 - - 10 - - - -
16/01:30pm 29.1 W 8 10 1010.2 - 0.0 - - 10 - - - -
16/01:00pm 29.1 W 8 11 1010.6 - 0.0 - - 10 - - - -
16/12:30pm 29.2 W 7 10 1011.1 - 0.0 - - 10 - - - -
16/12:00pm 28.2 W 8 10 1011.6 - 0.0 - - 10 - - - -
16/11:30am 28.6 W 7 9 1011.9 - 0.0 - - 10 - - - -
16/11:00am 27.6 W 8 10 1012.4 - 0.0 - - 10 - - - -
16/10:30am 26.9 WNW 8 11 1012.9 - 0.0 - - 10 - - - -
16/10:00am 26.3 W 7 10 1013.2 - 0.0 - - 10 - - - -
16/09:30am 26.7 W 7 8 1013.3 - 0.0 - - 10 - - - -
16/09:00am 26.1 WNW 4 6 1013.4 - 0.0 - - 10 - - - -
16/08:30am 25.7 SSW 4 6 1013.3 - 0.0 - - 10 - - - -
16/08:00am 24.4 WSW 5 6 1013.1 - 0.0 - - 10 - - - -
16/07:30am 23.3 CALM 0 0 1012.9 - 0.0 - - 10 - - - -
16/07:00am 21.7 SSW 4 7 1012.6 - 0.0 - - 10 - - - -
16/06:30am 19.9 SSW 4 5 1012.5 - 0.0 - - 10 - - - -
16/06:00am 19.5 SSW 5 6 1012.2 - 0.0 - - 10 - - - -
16/05:30am 16.1 CALM 0 0 1011.8 - 0.0 - - 10 - - - -
16/05:00am 16.2 CALM 0 0 1011.5 - 0.0 - - 10 - - - -
16/04:30am 15.3 CALM 0 0 1011.2 - 0.0 - - 10 - - - -
16/04:00am 15.5 NE 3 5 1011.1 - 0.0 - - 10 - - - -
16/03:30am 15.9 CALM 0 3 1011.0 - 0.0 - - 10 - - - -
16/03:00am 17.6 WNW 2 3 1011.0 - 0.0 - - 10 - - - -
16/02:30am 16.7 CALM 0 0 1011.1 - 0.0 - - 10 - - - -
16/02:00am 16.8 CALM 0 0 1011.1 - 0.0 - - 10 - - - -
16/01:30am 17.4 CALM 0 0 1011.3 - 0.0 - - 10 - - - -
16/01:00am 17.9 NNW 1 3 1011.4 - 0.0 - - 10 - - - -
16/12:30am 18.0 N 3 4 1011.5 - 0.0 - - 10 - - - -
16/12:00am 18.1 NNE 2 4 1011.5 - 0.0 - - 10 - - - -
 
Date/Time
WST
Temp
°C
Wind Pressure Rain since
9am
mm
Weather Cloud Vis
km
Sea
Height
m
Swell
Dir  Spd
kts
Gust
kts
hPa Trend Height
m
Period
s
Dir
15/11:30pm 19.0 N 4 6 1011.7 - 0.0 - - 10 - - - -
15/11:00pm 19.2 N 5 7 1011.7 - 0.0 - - 10 - - - -
15/10:30pm 19.0 NW 3 4 1011.8 - 0.0 - - 10 - - - -
15/10:00pm 22.4 WSW 3 4 1011.9 - 0.0 - - 10 - - - -
15/09:30pm 22.7 WSW 3 4 1012.1 - 0.0 - - 10 - - - -
15/09:00pm 23.2 WSW 6 7 1012.0 - 0.0 - - 10 - - - -
15/08:30pm 23.9 WSW 7 9 1012.0 - 0.0 - - 10 - - - -
15/08:00pm 24.5 SW 9 13 1011.7 - 0.0 - - 10 - - - -
15/07:30pm 25.0 SW 11 15 1011.5 - 0.0 - - 10 - - - -
15/07:00pm 25.3 SW 12 20 1011.1 - 0.0 - - 10 - - - -

Other Formats:

Comma delimited format used in spreadsheet applications
http://www.bom.gov.au/fwo/IDW60701/IDW60701.94203.axf

JavaScript Object Notation format (JSON) in row-major order
http://www.bom.gov.au/fwo/IDW60701/IDW60701.94203.json